Time;durP1;ratioP1;P1;durP2;ratioP2;P2;SDS_P1;SDS_P2;PMS_P1;PMS_P2;Temp;Humidity;BMP_temperature;BMP_pressure;BME280_temperature;BME280_humidity;BME280_pressure;Samples;Min_cycle;Max_cycle;Signal;HPM_P1;HPM_P2
2022/01/02 00:01:31;;;;;;;33.67;20.92;;;;;;;18.05;66.63;99864.69;3094573;28;20066;-54
2022/01/02 00:03:04;;;;;;;32.78;21.95;;;;;;;18.04;66.78;99867.53;3095375;28;20141;-54
2022/01/02 00:04:37;;;;;;;32.13;20.90;;;;;;;18.03;66.73;99866.69;3095734;28;20113;-55
2022/01/02 00:06:09;;;;;;;33.22;21.83;;;;;;;18.03;66.86;99864.00;3096768;28;20050;-55
2022/01/02 00:07:46;;;;;;;33.35;21.95;;;;;;;18.02;66.64;99861.47;3095754;28;20136;-54
2022/01/02 00:09:31;;;;;;;30.40;21.58;;;;;;;18.01;66.71;99866.00;3094876;28;20061;-55
2022/01/02 00:11:04;;;;;;;34.00;21.40;;;;;;;17.99;66.89;99869.88;3097200;28;20081;-54
2022/01/02 00:12:36;;;;;;;36.08;21.95;;;;;;;18.01;66.57;99863.31;3096282;28;20044;-55
2022/01/02 00:14:16;;;;;;;36.28;21.60;;;;;;;17.98;66.96;99854.78;3094596;28;20594;-53
2022/01/02 00:15:48;;;;;;;33.72;21.95;;;;;;;17.98;66.68;99862.84;3096265;28;20060;-55
2022/01/02 00:17:23;;;;;;;34.00;21.73;;;;;;;17.96;66.74;99860.31;3096337;28;20050;-52
2022/01/02 00:19:06;;;;;;;31.35;20.75;;;;;;;17.96;66.91;99854.94;3098061;28;20546;-53
2022/01/02 00:20:46;;;;;;;34.35;21.50;;;;;;;17.96;66.70;99859.47;3096956;28;20123;-54
2022/01/02 00:22:20;;;;;;;33.40;23.27;;;;;;;17.94;66.83;99853.44;3092817;28;20081;-54
2022/01/02 00:23:59;;;;;;;32.22;21.15;;;;;;;17.94;66.71;99853.44;3096328;28;20050;-53
2022/01/02 00:25:36;;;;;;;33.45;20.73;;;;;;;17.94;66.68;99856.97;3095230;28;20112;-55
2022/01/02 00:27:09;;;;;;;32.97;20.77;;;;;;;17.92;66.91;99850.94;3096916;28;20065;-56
2022/01/02 00:28:42;;;;;;;31.40;20.33;;;;;;;17.91;66.77;99848.41;3094993;28;20050;-54
2022/01/02 00:30:14;;;;;;;34.00;20.92;;;;;;;17.92;66.82;99850.09;3096990;28;20057;-55
2022/01/02 00:31:46;;;;;;;32.33;20.42;;;;;;;17.89;66.74;99845.06;3094906;28;20114;-53
2022/01/02 00:33:19;;;;;;;30.27;20.13;;;;;;;17.88;66.97;99849.56;3098193;28;20057;-52
2022/01/02 00:34:52;;;;;;;32.85;21.38;;;;;;;17.88;66.82;99846.06;3094744;28;20054;-51
2022/01/02 00:36:23;;;;;;;35.17;20.23;;;;;;;17.87;66.76;99853.28;3095602;28;20146;-55
2022/01/02 00:37:55;;;;;;;30.77;20.63;;;;;;;17.86;66.84;99849.75;3097625;28;20060;-54
2022/01/02 00:39:28;;;;;;;34.13;20.58;;;;;;;17.85;66.87;99849.91;3095809;28;20045;-54
2022/01/02 00:41:00;;;;;;;29.70;20.02;;;;;;;17.84;66.96;99850.94;3093546;28;20053;-56
2022/01/02 00:42:36;;;;;;;32.38;21.20;;;;;;;17.83;66.98;99854.63;3095416;28;20062;-56
2022/01/02 00:44:17;;;;;;;34.92;21.10;;;;;;;17.83;66.94;99851.94;3097037;28;20050;-57
2022/01/02 00:45:52;;;;;;;32.55;20.98;;;;;;;17.80;66.90;99842.41;3096431;28;20642;-54
2022/01/02 00:47:29;;;;;;;34.55;20.88;;;;;;;17.80;66.79;99842.41;3095020;28;20089;-56
2022/01/02 00:49:05;;;;;;;28.17;19.27;;;;;;;17.78;66.96;99844.41;3096238;28;20081;-54
2022/01/02 00:50:39;;;;;;;33.60;22.23;;;;;;;17.77;66.89;99837.31;3093586;28;20137;-53
2022/01/02 00:52:16;;;;;;;32.88;19.77;;;;;;;17.77;66.97;99848.03;3095403;28;20052;-54
2022/01/02 00:53:49;;;;;;;33.20;20.55;;;;;;;17.77;66.92;99844.53;3096312;28;20096;-55
2022/01/02 00:55:24;;;;;;;28.38;19.88;;;;;;;17.74;67.01;99848.38;3094525;28;20050;-53
2022/01/02 00:56:59;;;;;;;27.95;19.17;;;;;;;17.74;67.02;99844.84;3094750;28;20782;-55
2022/01/02 00:58:36;;;;;;;32.55;20.48;;;;;;;17.73;67.02;99843.19;3090114;28;20721;-54
2022/01/02 01:00:11;;;;;;;31.60;20.00;;;;;;;17.71;66.87;99842.50;3095761;28;20145;-58
2022/01/02 01:01:49;;;;;;;32.95;19.05;;;;;;;17.70;67.01;99848.91;3095689;28;20460;-54
2022/01/02 01:03:26;;;;;;;32.30;20.45;;;;;;;17.70;67.04;99851.59;3095118;28;20444;-56
2022/01/02 01:04:59;;;;;;;27.52;19.80;;;;;;;17.69;66.86;99849.88;3095311;28;20053;-56
2022/01/02 01:06:33;;;;;;;27.05;18.67;;;;;;;17.68;66.95;99845.53;3095365;28;20042;-55
2022/01/02 01:08:07;;;;;;;30.83;19.17;;;;;;;17.68;67.02;99845.53;3094697;28;20115;-55
2022/01/02 01:09:39;;;;;;;32.47;20.50;;;;;;;17.67;67.00;99850.06;3095474;28;20046;-53
2022/01/02 01:11:12;;;;;;;29.20;19.17;;;;;;;17.65;66.89;99850.22;3094629;28;20046;-54
2022/01/02 01:12:46;;;;;;;32.88;20.00;;;;;;;17.65;67.06;99849.41;3096719;28;20129;-53
2022/01/02 01:14:17;;;;;;;29.98;20.20;;;;;;;17.63;66.91;99851.41;3096537;28;20960;-56
2022/01/02 01:15:50;;;;;;;27.95;19.02;;;;;;;17.62;67.05;99845.19;3092536;28;20108;-56
2022/01/02 01:17:22;;;;;;;31.23;19.90;;;;;;;17.62;67.06;99850.56;3092311;28;20057;-56
2022/01/02 01:18:54;;;;;;;31.45;19.25;;;;;;;17.61;66.98;99842.69;3096628;28;20069;-53
2022/01/02 01:20:29;;;;;;;30.67;18.95;;;;;;;17.60;67.19;99849.88;3096801;28;20069;-55
2022/01/02 01:22:00;;;;;;;28.08;19.17;;;;;;;17.60;66.98;99849.06;3096754;28;20053;-52
2022/01/02 01:23:32;;;;;;;28.75;17.75;;;;;;;17.58;67.03;99854.59;3096222;28;20566;-54
2022/01/02 01:25:07;;;;;;;32.55;19.25;;;;;;;17.58;67.06;99857.28;3093096;28;20042;-54
2022/01/02 01:26:41;;;;;;;31.52;19.70;;;;;;;17.59;67.00;99856.28;3095674;28;20053;-54
2022/01/02 01:28:14;;;;;;;28.58;17.85;;;;;;;17.56;67.07;99861.97;3096209;28;20090;-58
2022/01/02 01:29:46;;;;;;;29.52;20.17;;;;;;;17.56;67.07;99863.81;3096057;28;20531;-57
2022/01/02 01:31:18;;;;;;;31.73;19.42;;;;;;;17.56;66.93;99861.97;3089123;28;21065;-53
2022/01/02 01:32:49;;;;;;;30.90;18.30;;;;;;;17.54;67.03;99861.28;3095411;28;20050;-55
2022/01/02 01:34:21;;;;;;;29.65;18.50;;;;;;;17.54;67.10;99858.59;3097200;28;20042;-55
2022/01/02 01:35:53;;;;;;;28.10;17.48;;;;;;;17.54;66.96;99858.59;3095737;28;20097;-57
2022/01/02 01:37:25;;;;;;;31.85;18.90;;;;;;;17.54;66.98;99863.13;3092220;28;20050;-55
2022/01/02 01:38:57;;;;;;;31.90;20.48;;;;;;;17.52;66.96;99863.28;3095418;28;20122;-55
2022/01/02 01:40:34;;;;;;;30.23;19.98;;;;;;;17.51;66.83;99861.63;3096409;28;20050;-55
2022/01/02 01:42:11;;;;;;;28.05;17.90;;;;;;;17.52;66.80;99854.41;3097354;28;20057;-55
2022/01/02 01:43:54;;;;;;;24.08;17.98;;;;;;;17.53;66.90;99856.09;3095880;28;20488;-56
2022/01/02 01:45:28;;;;;;;26.20;18.17;;;;;;;17.51;66.94;99856.25;3092286;28;20420;-52
2022/01/02 01:47:00;;;;;;;29.00;18.20;;;;;;;17.50;66.95;99857.28;3095905;28;20061;-54
2022/01/02 01:48:32;;;;;;;31.98;20.33;;;;;;;17.49;66.98;99852.91;3096529;28;20080;-54
2022/01/02 01:50:05;;;;;;;26.30;17.15;;;;;;;17.46;66.87;99850.56;3095343;28;20101;-53
2022/01/02 01:51:37;;;;;;;27.77;18.80;;;;;;;17.47;67.02;99852.25;3095036;28;20056;-54
2022/01/02 01:53:10;;;;;;;30.63;19.48;;;;;;;17.47;67.02;99854.94;3094133;28;20871;-57
2022/01/02 01:54:42;;;;;;;26.10;18.15;;;;;;;17.45;67.07;99851.56;3093350;28;20050;-54
2022/01/02 01:56:14;;;;;;;27.27;17.50;;;;;;;17.44;66.98;99852.59;3096230;28;20045;-55
2022/01/02 01:57:48;;;;;;;27.70;19.10;;;;;;;17.44;66.88;99852.59;3095305;28;20066;-55
2022/01/02 01:59:21;;;;;;;28.13;19.30;;;;;;;17.43;66.98;99856.25;3095246;28;20056;-57
2022/01/02 02:00:52;;;;;;;28.02;18.05;;;;;;;17.43;67.02;99856.25;3095771;28;20042;-56
2022/01/02 02:02:25;;;;;;;27.58;17.48;;;;;;;17.42;66.94;99859.94;3096166;28;20049;-57
2022/01/02 02:03:57;;;;;;;27.10;18.30;;;;;;;17.41;66.91;99852.88;3096816;28;20050;-55
2022/01/02 02:05:29;;;;;;;28.42;17.52;;;;;;;17.40;67.00;99856.59;3095133;28;20042;-55
2022/01/02 02:07:01;;;;;;;29.67;17.13;;;;;;;17.39;66.91;99861.13;3095520;28;20081;-55
2022/01/02 02:08:33;;;;;;;27.08;19.17;;;;;;;17.39;66.88;99855.75;3093633;28;20043;-56
2022/01/02 02:10:12;;;;;;;32.78;19.75;;;;;;;17.38;66.94;99850.53;3096418;28;20056;-58
2022/01/02 02:11:44;;;;;;;25.98;18.55;;;;;;;17.37;66.98;99855.06;3095717;28;20129;-54
2022/01/02 02:13:18;;;;;;;27.92;17.98;;;;;;;17.38;66.95;99850.53;3095964;28;20054;-55
2022/01/02 02:14:49;;;;;;;27.38;18.25;;;;;;;17.36;66.83;99849.91;3094989;28;20042;-55
2022/01/02 02:16:22;;;;;;;27.80;17.92;;;;;;;17.37;66.90;99854.25;3096418;28;20621;-55
2022/01/02 02:17:54;;;;;;;26.48;18.08;;;;;;;17.35;66.88;99849.03;3094491;28;20050;-55
2022/01/02 02:19:25;;;;;;;27.27;17.20;;;;;;;17.35;66.76;99851.72;3094767;28;20050;-55
2022/01/02 02:20:59;;;;;;;27.27;17.95;;;;;;;17.35;66.87;99848.19;3097303;28;20042;-56
2022/01/02 02:22:31;;;;;;;26.20;18.48;;;;;;;17.33;66.85;99845.69;3094816;28;20045;-52
2022/01/02 02:24:04;;;;;;;29.75;18.67;;;;;;;17.32;67.03;99837.81;3095833;28;20104;-53
2022/01/02 02:25:38;;;;;;;26.77;18.08;;;;;;;17.30;66.93;99838.00;3094892;28;20050;-55
2022/01/02 02:27:09;;;;;;;25.10;16.75;;;;;;;17.30;66.85;99835.31;3094808;28;20404;-54
2022/01/02 02:28:41;;;;;;;29.50;17.02;;;;;;;17.31;66.98;99836.13;3096792;28;20061;-55
2022/01/02 02:30:13;;;;;;;27.35;17.38;;;;;;;17.29;66.97;99835.47;3096614;28;20093;-54
2022/01/02 02:31:45;;;;;;;29.33;18.45;;;;;;;17.28;66.89;99841.84;3094282;28;20123;-55
2022/01/02 02:33:17;;;;;;;24.25;17.50;;;;;;;17.27;66.89;99838.28;3095609;28;20050;-54
2022/01/02 02:34:49;;;;;;;28.23;17.05;;;;;;;17.27;66.90;99842.81;3093757;28;20379;-56
2022/01/02 02:36:23;;;;;;;25.55;17.42;;;;;;;17.27;66.94;99840.97;3096231;28;20054;-55
2022/01/02 02:37:55;;;;;;;27.60;17.05;;;;;;;17.27;66.82;99837.47;3095077;28;20496;-56
2022/01/02 02:39:28;;;;;;;29.90;18.30;;;;;;;17.26;66.90;99838.47;3094198;28;20050;-54
2022/01/02 02:41:00;;;;;;;25.63;17.85;;;;;;;17.24;66.98;99833.25;3093816;28;20070;-53
2022/01/02 02:42:39;;;;;;;28.13;17.55;;;;;;;17.23;67.05;99836.97;3095307;28;20046;-53
2022/01/02 02:44:20;;;;;;;28.90;18.95;;;;;;;17.23;66.94;99833.44;3091805;28;20644;-55
2022/01/02 02:49:30;;;;;;;23.98;16.70;;;;;;;17.19;67.13;99835.63;3084635;28;20050;-55
2022/01/02 02:51:03;;;;;;;21.95;16.58;;;;;;;17.19;66.88;99832.94;3085071;28;20050;-54
2022/01/02 02:52:42;;;;;;;27.35;18.10;;;;;;;17.17;66.96;99830.41;3080201;28;20053;-55
2022/01/02 02:54:19;;;;;;;25.98;17.20;;;;;;;17.17;67.01;99834.94;3082837;28;20612;-54
2022/01/02 02:55:55;;;;;;;23.85;16.48;;;;;;;17.16;66.98;99836.78;3085159;28;20107;-57
2022/01/02 02:57:27;;;;;;;30.98;18.13;;;;;;;17.16;67.01;99834.13;3082096;28;20090;-55
2022/01/02 02:58:58;;;;;;;26.40;17.33;;;;;;;17.15;66.89;99832.41;3085299;28;20168;-56
2022/01/02 03:00:30;;;;;;;25.83;16.23;;;;;;;17.12;67.01;99832.75;3082148;28;20926;-52
2022/01/02 03:02:02;;;;;;;26.92;16.67;;;;;;;17.13;67.02;99830.91;3081417;28;20055;-54
2022/01/02 03:03:33;;;;;;;26.23;16.95;;;;;;;17.12;67.10;99826.56;3084925;28;20054;-54
2022/01/02 03:05:05;;;;;;;27.08;18.10;;;;;;;17.11;67.00;99823.03;3080695;28;20089;-53
2022/01/02 03:06:37;;;;;;;26.33;17.08;;;;;;;17.11;66.95;99816.84;3083951;28;20061;-56
2022/01/02 03:08:10;;;;;;;23.73;15.60;;;;;;;17.11;67.02;99820.38;3084580;28;20090;-53
2022/01/02 03:09:48;;;;;;;25.40;16.38;;;;;;;17.08;67.15;99815.34;3082218;28;20043;-54
2022/01/02 03:11:21;;;;;;;24.38;16.60;;;;;;;17.09;67.19;99816.16;3078279;28;21093;-58
2022/01/02 03:12:53;;;;;;;27.60;15.65;;;;;;;17.07;66.96;99810.97;3080818;28;20055;-56
2022/01/02 03:14:24;;;;;;;26.48;16.63;;;;;;;17.07;66.99;99807.44;3080604;28;20050;-56
2022/01/02 03:15:56;;;;;;;24.38;16.20;;;;;;;17.07;66.99;99804.75;3079677;28;20054;-56
2022/01/02 03:17:28;;;;;;;29.25;17.27;;;;;;;17.06;67.02;99803.09;3082900;28;20050;-55
2022/01/02 03:19:00;;;;;;;22.63;15.77;;;;;;;17.05;67.03;99799.59;3080101;28;20845;-54
2022/01/02 03:20:32;;;;;;;21.13;16.10;;;;;;;17.04;67.02;99797.88;3083283;28;20047;-52
2022/01/02 03:22:07;;;;;;;28.15;17.52;;;;;;;17.03;67.05;99793.53;3081098;28;20046;-55
2022/01/02 03:23:41;;;;;;;21.50;15.57;;;;;;;17.02;66.93;99799.91;3083673;28;20046;-55
2022/01/02 03:25:14;;;;;;;24.55;15.57;;;;;;;17.01;67.08;99789.34;3081412;28;20050;-56
2022/01/02 03:26:45;;;;;;;27.10;16.50;;;;;;;17.00;67.09;99791.19;3083693;28;20047;-54
2022/01/02 03:28:16;;;;;;;21.35;15.13;;;;;;;17.01;67.20;99792.03;3080573;28;20046;-55
2022/01/02 03:29:48;;;;;;;22.85;15.00;;;;;;;17.00;67.06;99788.50;3081283;28;20051;-55
2022/01/02 03:31:20;;;;;;;25.75;16.13;;;;;;;16.98;67.18;99787.84;3079723;28;20039;-54
2022/01/02 03:32:51;;;;;;;24.23;16.33;;;;;;;16.97;67.11;99791.53;3086352;28;20113;-55
2022/01/02 03:34:23;;;;;;;25.27;15.55;;;;;;;16.98;67.15;99793.19;3084551;28;20729;-52
2022/01/02 03:35:54;;;;;;;25.73;15.48;;;;;;;16.96;67.19;99790.66;3084053;28;20057;-57
2022/01/02 03:37:28;;;;;;;24.75;16.20;;;;;;;16.96;67.03;99781.78;3080253;28;20055;-55
2022/01/02 03:39:01;;;;;;;22.08;15.23;;;;;;;16.94;67.23;99787.34;3083786;28;20049;-55
2022/01/02 03:40:33;;;;;;;21.33;14.98;;;;;;;16.94;67.25;99787.34;3083987;28;20046;-53
2022/01/02 03:42:06;;;;;;;24.90;16.13;;;;;;;16.92;67.10;99783.97;3083718;28;20054;-52
2022/01/02 03:43:38;;;;;;;24.85;16.38;;;;;;;16.92;67.19;99783.13;3083032;28;20203;-55
2022/01/02 03:45:09;;;;;;;23.77;14.90;;;;;;;16.91;67.08;99776.94;3081475;28;21068;-56
2022/01/02 03:46:41;;;;;;;;;;;;;;;16.91;67.04;99784.13;3085462;28;20042;-53
2022/01/02 03:48:13;;;;;;;24.17;16.27;;;;;;;16.90;67.29;99791.31;3082086;28;19934;-51
2022/01/02 03:49:45;;;;;;;23.08;14.93;;;;;;;16.89;67.27;99784.31;3082624;28;20051;-54
2022/01/02 03:51:17;;;;;;;21.75;15.88;;;;;;;16.89;67.18;99788.81;3086178;28;20051;-55
2022/01/02 03:52:49;;;;;;;24.90;16.52;;;;;;;16.88;67.16;99788.00;3082590;28;20058;-55
2022/01/02 03:54:22;;;;;;;22.92;15.07;;;;;;;16.86;67.23;99792.66;3080000;28;20039;-55
2022/01/02 03:55:54;;;;;;;21.50;15.65;;;;;;;16.86;67.33;99787.31;3081148;28;20053;-53
2022/01/02 03:57:25;;;;;;;22.80;15.85;;;;;;;16.86;67.18;99791.84;3082332;28;20521;-54
2022/01/02 03:58:57;;;;;;;24.30;15.00;;;;;;;16.85;67.31;99792.81;3079910;28;20080;-54
2022/01/02 04:00:28;;;;;;;23.90;15.75;;;;;;;16.85;67.31;99787.47;3085651;28;20058;-53
2022/01/02 04:02:00;;;;;;;22.80;16.05;;;;;;;16.84;67.23;99785.78;3082385;28;20047;-55
2022/01/02 04:03:32;;;;;;;23.05;14.52;;;;;;;16.84;67.25;99783.13;3083222;28;20050;-53
2022/01/02 04:05:05;;;;;;;23.58;14.38;;;;;;;16.81;67.23;99780.75;3081051;28;20627;-54
2022/01/02 04:06:37;;;;;;;23.88;15.20;;;;;;;16.82;67.33;99782.44;3079982;28;20505;-52
2022/01/02 04:08:08;;;;;;;21.80;14.52;;;;;;;16.80;67.26;99781.75;3083955;28;20058;-52
2022/01/02 04:09:42;;;;;;;24.50;15.13;;;;;;;16.80;67.22;99787.09;3081117;28;20058;-53
2022/01/02 04:11:14;;;;;;;24.30;14.65;;;;;;;16.79;67.33;99785.44;3080328;28;20701;-52
2022/01/02 04:12:46;;;;;;;22.63;14.70;;;;;;;16.78;67.34;99781.94;3079567;28;20051;-55
2022/01/02 04:14:18;;;;;;;20.63;14.20;;;;;;;16.77;67.54;99780.25;3083280;28;20054;-52
2022/01/02 04:15:49;;;;;;;23.20;14.93;;;;;;;16.77;67.40;99785.63;3081267;28;20054;-51
2022/01/02 04:17:22;;;;;;;26.50;15.60;;;;;;;16.77;67.33;99784.75;3082228;28;20085;-53
2022/01/02 04:18:53;;;;;;;18.52;13.88;;;;;;;16.75;67.34;99788.41;3079384;28;20761;-55
2022/01/02 04:20:25;;;;;;;22.17;15.23;;;;;;;16.75;67.33;99785.75;3081342;28;20057;-53
2022/01/02 04:21:57;;;;;;;21.42;13.90;;;;;;;16.75;67.35;99782.22;3080983;28;20834;-54
2022/01/02 04:23:29;;;;;;;21.02;13.75;;;;;;;16.73;67.35;99785.06;3081684;28;20042;-55
2022/01/02 04:25:02;;;;;;;19.88;13.35;;;;;;;16.73;67.32;99790.41;3081862;28;20085;-54
2022/01/02 04:26:34;;;;;;;22.13;14.10;;;;;;;16.72;67.21;99788.75;3080044;28;20047;-51
2022/01/02 04:28:06;;;;;;;21.85;14.82;;;;;;;16.73;67.27;99786.91;3081812;28;20047;-53
2022/01/02 04:29:37;;;;;;;21.42;15.10;;;;;;;16.70;67.45;99780.03;3081299;28;20070;-52
2022/01/02 04:31:10;;;;;;;20.45;14.18;;;;;;;16.69;67.32;99781.03;3082662;28;20501;-52
2022/01/02 04:32:41;;;;;;;22.65;14.05;;;;;;;16.69;67.31;99781.03;3083366;28;20078;-56
2022/01/02 04:34:12;;;;;;;22.10;14.77;;;;;;;16.69;67.40;99778.38;3082162;28;20047;-56
2022/01/02 04:35:44;;;;;;;20.13;14.32;;;;;;;16.67;67.46;99782.22;3080787;28;20109;-56
2022/01/02 04:37:16;;;;;;;22.23;13.20;;;;;;;16.68;67.25;99782.03;3083882;28;20065;-54
2022/01/02 04:38:48;;;;;;;23.15;15.77;;;;;;;16.67;67.42;99783.03;3080000;28;20050;-55
2022/01/02 04:40:21;;;;;;;19.77;12.73;;;;;;;16.66;67.51;99777.81;3079825;28;20191;-55
2022/01/02 04:41:53;;;;;;;25.00;15.40;;;;;;;16.65;67.33;99781.53;3080937;28;20050;-55
2022/01/02 04:43:25;;;;;;;20.60;13.85;;;;;;;16.65;67.35;99776.16;3080260;28;20057;-55
2022/01/02 04:44:57;;;;;;;20.50;13.45;;;;;;;16.66;67.33;99772.47;3081465;28;20440;-55
2022/01/02 04:46:29;;;;;;;22.00;13.88;;;;;;;16.64;67.48;99771.81;3079628;28;20062;-55
2022/01/02 04:48:00;;;;;;;19.88;13.40;;;;;;;16.62;67.42;99777.31;3083339;28;20687;-56
2022/01/02 04:49:32;;;;;;;19.80;14.02;;;;;;;16.63;67.33;99775.47;3083369;28;20050;-55
2022/01/02 04:51:04;;;;;;;21.05;15.20;;;;;;;16.63;67.33;99778.16;3083244;28;20061;-55
2022/01/02 04:52:36;;;;;;;23.67;14.70;;;;;;;16.65;67.32;99770.81;3084363;28;20058;-55
2022/01/02 04:54:08;;;;;;;22.02;14.05;;;;;;;16.66;67.32;99772.47;3083295;28;20050;-56
2022/01/02 04:55:41;;;;;;;21.23;13.13;;;;;;;16.65;67.34;99762.78;3084470;28;20061;-54
2022/01/02 04:57:13;;;;;;;21.70;14.00;;;;;;;16.65;67.52;99765.44;3084207;28;20731;-52
2022/01/02 04:58:45;;;;;;;19.45;13.55;;;;;;;16.66;67.41;99767.13;3083660;28;20059;-56
2022/01/02 05:00:17;;;;;;;18.65;12.85;;;;;;;16.66;67.51;99764.44;3076476;28;20062;-55
2022/01/02 05:01:49;;;;;;;17.92;12.63;;;;;;;16.66;67.60;99767.97;3082355;28;20433;-55
2022/01/02 05:03:21;;;;;;;20.20;13.25;;;;;;;16.67;67.52;99758.09;3081122;28;20133;-54
2022/01/02 05:04:52;;;;;;;19.63;13.45;;;;;;;16.67;67.45;99761.59;3080734;28;20101;-55
2022/01/02 05:06:24;;;;;;;17.83;12.70;;;;;;;16.69;67.55;99767.66;3082640;28;20081;-56
2022/01/02 05:07:56;;;;;;;21.95;14.55;;;;;;;16.71;67.62;99759.44;3080970;28;20062;-55
2022/01/02 05:09:28;;;;;;;20.00;13.20;;;;;;;16.74;67.55;99759.97;3079561;28;20054;-54
2022/01/02 05:11:01;;;;;;;19.10;12.13;;;;;;;16.79;67.51;99755.97;3087072;28;20050;-53
2022/01/02 05:12:34;;;;;;;17.33;13.13;;;;;;;16.83;67.40;99760.00;3095699;28;20053;-56
2022/01/02 05:14:05;;;;;;;20.33;13.60;;;;;;;16.86;67.48;99762.38;3093748;28;20042;-53
2022/01/02 05:15:36;;;;;;;18.70;13.00;;;;;;;16.90;67.45;99763.69;3093047;28;21018;-54
2022/01/02 05:17:08;;;;;;;16.77;12.10;;;;;;;16.94;67.32;99759.69;3091640;28;20042;-55
2022/01/02 05:18:40;;;;;;;20.23;12.40;;;;;;;17.00;67.24;99758.19;3093937;28;20544;-55
2022/01/02 05:20:12;;;;;;;22.02;12.90;;;;;;;17.03;67.33;99758.69;3090995;28;20053;-56
2022/01/02 05:21:44;;;;;;;19.80;13.35;;;;;;;17.09;67.20;99757.19;3092048;28;20054;-55
2022/01/02 05:23:18;;;;;;;17.63;12.70;;;;;;;17.16;67.12;99761.72;3095473;28;20610;-56
2022/01/02 05:24:50;;;;;;;20.55;12.88;;;;;;;17.18;67.05;99757.00;3092771;28;20103;-55
2022/01/02 05:26:23;;;;;;;19.40;12.82;;;;;;;17.23;66.99;99758.38;3090855;28;20058;-55
2022/01/02 05:27:55;;;;;;;22.27;14.20;;;;;;;17.26;66.82;99758.88;3094268;28;20120;-52
2022/01/02 05:29:27;;;;;;;20.08;13.75;;;;;;;17.31;66.91;99753.84;3092345;28;20046;-55
2022/01/02 05:30:58;;;;;;;18.92;12.30;;;;;;;17.34;66.97;99747.31;3093051;28;20050;-52
2022/01/02 05:32:30;;;;;;;19.83;12.57;;;;;;;17.37;66.78;99755.03;3092249;28;20057;-54
2022/01/02 05:34:00;;;;;;;20.65;13.35;;;;;;;17.39;66.84;99758.38;3091805;28;20811;-55
2022/01/02 05:35:32;;;;;;;17.67;12.80;;;;;;;17.41;66.80;99753.66;3095903;28;20188;-55
2022/01/02 05:37:04;;;;;;;17.05;11.05;;;;;;;17.43;66.85;99760.53;3094382;28;20284;-54
2022/01/02 05:38:36;;;;;;;18.38;12.68;;;;;;;17.45;66.84;99765.75;3089801;28;20104;-56
2022/01/02 05:40:08;;;;;;;20.70;13.20;;;;;;;17.49;66.59;99759.03;3094942;28;20678;-55
2022/01/02 05:41:42;;;;;;;16.35;12.63;;;;;;;17.50;66.46;99754.53;3093935;28;20054;-57
2022/01/02 05:43:14;;;;;;;19.15;12.48;;;;;;;17.53;66.54;99764.91;3095353;28;20066;-54
2022/01/02 05:44:46;;;;;;;17.35;11.90;;;;;;;17.53;66.45;99762.22;3090286;28;20078;-54
2022/01/02 05:46:18;;;;;;;18.60;11.77;;;;;;;17.55;66.64;99763.72;3093697;28;20128;-55
2022/01/02 05:47:49;;;;;;;16.17;11.77;;;;;;;17.57;66.35;99756.34;3090421;28;20511;-53
2022/01/02 05:49:21;;;;;;;17.40;12.20;;;;;;;17.59;66.29;99759.69;3094518;28;20054;-54
2022/01/02 05:50:54;;;;;;;16.50;10.88;;;;;;;17.61;66.37;99773.78;3092005;28;20622;-55
2022/01/02 05:52:26;;;;;;;17.38;12.43;;;;;;;17.60;66.45;99764.03;3093406;28;20066;-53
2022/01/02 05:53:57;;;;;;;17.92;12.40;;;;;;;17.62;66.42;99769.25;3094863;28;20133;-54
2022/01/02 05:55:28;;;;;;;18.58;11.50;;;;;;;17.64;66.25;99770.75;3089496;28;20054;-55
2022/01/02 05:57:02;;;;;;;15.75;12.00;;;;;;;17.65;66.24;99766.22;3096976;28;20169;-55
2022/01/02 05:58:34;;;;;;;17.80;11.85;;;;;;;17.67;66.32;99768.75;3092616;28;20050;-55
2022/01/02 06:00:07;;;;;;;15.93;11.38;;;;;;;17.67;66.28;99763.38;3094183;28;20042;-56
2022/01/02 06:01:39;;;;;;;16.30;11.70;;;;;;;17.69;66.17;99772.06;3094122;28;20511;-52
2022/01/02 06:03:10;;;;;;;16.30;11.48;;;;;;;17.68;66.24;99765.88;3091347;28;20069;-55
2022/01/02 06:04:42;;;;;;;17.42;12.10;;;;;;;17.71;66.29;99772.75;3092090;28;20116;-53
2022/01/02 06:06:14;;;;;;;16.45;11.35;;;;;;;17.72;66.21;99766.38;3092155;28;20050;-53
2022/01/02 06:07:46;;;;;;;15.00;10.38;;;;;;;17.75;66.06;99768.75;3091620;28;20050;-55
2022/01/02 06:09:17;;;;;;;16.20;11.25;;;;;;;17.77;66.02;99774.75;3101720;28;20050;-54
2022/01/02 06:10:49;;;;;;;14.50;10.55;;;;;;;17.75;66.12;99769.56;3093473;28;20432;-55
2022/01/02 06:12:23;;;;;;;17.17;11.15;;;;;;;17.78;66.07;99773.75;3089390;28;20042;-54
2022/01/02 06:13:55;;;;;;;17.30;11.50;;;;;;;17.79;66.12;99772.78;3092323;28;20647;-55
2022/01/02 06:15:26;;;;;;;16.52;11.23;;;;;;;17.82;65.96;99775.13;3091296;28;20059;-55
2022/01/02 06:16:58;;;;;;;16.40;12.02;;;;;;;17.82;65.93;99770.56;3093850;28;20088;-54
2022/01/02 06:18:30;;;;;;;15.93;10.90;;;;;;;17.82;65.87;99773.25;3094590;28;20479;-55
2022/01/02 06:20:02;;;;;;;16.05;10.15;;;;;;;17.85;65.90;99772.09;3092764;28;20046;-56
2022/01/02 06:21:33;;;;;;;16.17;10.73;;;;;;;17.84;66.01;99775.78;3092972;28;20121;-56
2022/01/02 06:23:05;;;;;;;14.20;10.57;;;;;;;17.85;65.86;99769.41;3095843;28;20093;-51
2022/01/02 06:24:37;;;;;;;18.75;12.07;;;;;;;17.85;65.92;99772.91;3097019;28;20470;-55
2022/01/02 06:26:09;;;;;;;19.13;11.55;;;;;;;17.86;65.85;99776.47;3096348;28;20135;-55
2022/01/02 06:27:43;;;;;;;16.00;11.15;;;;;;;17.86;65.96;99771.94;3099674;28;20128;-53
2022/01/02 06:29:15;;;;;;;13.68;9.40;;;;;;;17.87;65.92;99770.06;3094045;28;20041;-56
2022/01/02 06:30:47;;;;;;;14.27;11.50;;;;;;;17.88;66.10;99774.44;3098319;28;20054;-53
2022/01/02 06:32:18;;;;;;;16.55;10.48;;;;;;;17.89;65.83;99770.75;3095367;28;20058;-54
2022/01/02 06:33:50;;;;;;;15.25;10.57;;;;;;;17.87;65.81;99775.44;3095342;28;20043;-52
2022/01/02 06:35:24;;;;;;;13.77;10.07;;;;;;;17.87;65.96;99775.44;3096461;28;20408;-54
2022/01/02 06:36:56;;;;;;;15.73;11.15;;;;;;;17.86;65.94;99779.16;3096308;28;20125;-53
2022/01/02 06:38:28;;;;;;;15.15;10.30;;;;;;;17.88;65.91;99779.78;3097101;28;20525;-53
2022/01/02 06:40:00;;;;;;;17.00;10.80;;;;;;;17.86;65.78;99782.66;3098643;28;20106;-52
2022/01/02 06:41:31;;;;;;;14.85;10.55;;;;;;;17.88;65.89;99787.84;3097045;28;20049;-55
2022/01/02 06:43:05;;;;;;;14.40;10.63;;;;;;;17.87;65.82;99778.13;3095604;28;20058;-55
2022/01/02 06:44:37;;;;;;;12.80;9.70;;;;;;;17.89;65.90;99780.66;3097842;28;20076;-54
2022/01/02 06:46:09;;;;;;;16.58;10.57;;;;;;;17.90;65.79;99783.16;3095402;28;20053;-56
2022/01/02 06:47:41;;;;;;;14.00;10.55;;;;;;;17.92;65.84;99781.13;3094876;28;20058;-55
2022/01/02 06:49:12;;;;;;;13.23;10.50;;;;;;;17.92;65.71;99785.69;3098899;28;20510;-53
2022/01/02 06:50:45;;;;;;;13.85;9.90;;;;;;;17.94;65.88;99784.50;3095088;28;20100;-57
2022/01/02 06:52:16;;;;;;;15.23;10.52;;;;;;;17.94;65.74;99772.91;3095934;28;20054;-52
2022/01/02 06:53:47;;;;;;;13.13;9.43;;;;;;;17.96;65.80;99784.31;3095281;28;20141;-55
2022/01/02 06:55:19;;;;;;;15.55;10.60;;;;;;;17.98;65.63;99779.63;3096294;28;20053;-54
2022/01/02 06:56:51;;;;;;;13.65;9.90;;;;;;;17.99;65.71;99782.13;3092092;28;20050;-55
2022/01/02 06:58:24;;;;;;;14.27;9.65;;;;;;;18.00;65.70;99775.75;3095023;28;20050;-52
2022/01/02 06:59:56;;;;;;;15.70;11.18;;;;;;;18.02;65.85;99772.88;3098870;28;20053;-55
2022/01/02 07:01:28;;;;;;;14.15;9.55;;;;;;;18.06;65.45;99783.13;3089947;28;20060;-55
2022/01/02 07:03:00;;;;;;;13.10;9.45;;;;;;;18.06;65.54;99783.13;3098300;28;20060;-55
2022/01/02 07:04:32;;;;;;;14.68;11.10;;;;;;;18.07;65.43;99774.03;3097613;28;20073;-51
2022/01/02 07:06:04;;;;;;;13.80;9.55;;;;;;;18.09;65.59;99771.19;3095875;28;20058;-54
2022/01/02 07:07:40;;;;;;;12.52;9.73;;;;;;;18.12;65.31;99772.69;3095617;28;20050;-54
2022/01/02 07:09:12;;;;;;;13.20;9.32;;;;;;;18.12;65.47;99778.91;3096776;28;20054;-55
2022/01/02 07:10:44;;;;;;;12.57;10.55;;;;;;;18.14;65.39;99778.75;3094146;28;20050;-53